createdAt,value
2019-05-19T00:00:58.926Z,0.00
2019-05-19T00:01:58.912Z,0.00
2019-05-19T00:02:58.900Z,0.00
2019-05-19T00:03:58.911Z,0.00
2019-05-19T00:04:58.881Z,0.00
2019-05-19T00:05:58.867Z,0.00
2019-05-19T00:06:58.866Z,0.00
2019-05-19T00:07:58.838Z,0.00
2019-05-19T00:08:58.828Z,0.00
2019-05-19T00:09:58.859Z,0.00
2019-05-19T00:10:58.842Z,0.00
2019-05-19T00:11:58.801Z,0.00
2019-05-19T00:12:58.789Z,0.00
2019-05-19T00:13:58.778Z,0.00
2019-05-19T00:14:58.763Z,0.00
2019-05-19T00:15:58.783Z,0.00
2019-05-19T00:16:58.747Z,0.00
2019-05-19T00:17:58.730Z,0.00
2019-05-19T00:18:58.722Z,0.00
2019-05-19T00:19:58.711Z,0.00
2019-05-19T00:20:58.696Z,0.00
2019-05-19T00:21:58.712Z,0.00
2019-05-19T00:22:58.678Z,0.00
2019-05-19T00:23:59.909Z,0.00
2019-05-19T00:24:58.651Z,0.00
2019-05-19T00:25:58.639Z,0.00
2019-05-19T00:26:58.628Z,0.00
2019-05-19T00:27:58.644Z,0.00
2019-05-19T00:28:58.607Z,0.00
2019-05-19T00:29:58.594Z,0.00
2019-05-19T00:30:58.602Z,0.00
2019-05-19T00:31:58.578Z,0.00
2019-05-19T00:32:58.563Z,0.00
2019-05-19T00:33:58.558Z,0.00
2019-05-19T00:34:58.545Z,0.00
2019-05-19T00:35:58.552Z,0.00
2019-05-19T00:36:58.517Z,0.00
2019-05-19T00:37:58.513Z,0.00
2019-05-19T00:38:58.497Z,0.00
2019-05-19T00:39:58.491Z,0.00
2019-05-19T00:40:58.474Z,0.00
2019-05-19T00:41:58.478Z,0.00
2019-05-19T00:42:58.459Z,0.00
2019-05-19T00:43:58.450Z,0.00
2019-05-19T00:44:58.435Z,0.00
2019-05-19T00:45:58.417Z,0.00
2019-05-19T00:46:58.426Z,0.00
2019-05-19T00:47:58.400Z,0.00
2019-05-19T00:48:58.387Z,0.00
2019-05-19T00:49:58.374Z,0.00
2019-05-19T00:50:58.364Z,0.00
2019-05-19T00:51:58.360Z,0.00
2019-05-19T00:52:58.384Z,0.00
2019-05-19T00:53:58.334Z,0.00
2019-05-19T00:54:58.323Z,0.00
2019-05-19T00:55:58.312Z,0.00
2019-05-19T00:56:58.303Z,0.00
2019-05-19T00:57:58.290Z,0.00
2019-05-19T00:58:58.291Z,0.00
2019-05-19T00:59:58.264Z,0.00
2019-05-19T01:00:58.258Z,0.00
2019-05-19T01:01:58.246Z,0.00
2019-05-19T01:02:58.250Z,0.00
2019-05-19T01:03:58.238Z,0.00
2019-05-19T01:04:58.215Z,0.00
2019-05-19T01:05:58.205Z,0.00
2019-05-19T01:06:58.193Z,0.00
2019-05-19T01:07:58.180Z,0.00
2019-05-19T01:08:58.195Z,0.00
2019-05-19T01:09:58.156Z,0.00
2019-05-19T01:10:58.143Z,0.00
2019-05-19T01:11:58.138Z,0.00
2019-05-19T01:12:58.123Z,0.00
2019-05-19T01:13:58.120Z,0.00
2019-05-19T01:14:58.106Z,0.00
2019-05-19T01:15:58.095Z,0.00
2019-05-19T01:16:58.086Z,0.00
2019-05-19T01:17:58.070Z,0.00
2019-05-19T01:18:58.080Z,0.00
2019-05-19T01:19:58.055Z,0.00
2019-05-19T01:20:58.040Z,0.00
2019-05-19T01:21:58.027Z,0.00
2019-05-19T01:22:58.021Z,0.00
2019-05-19T01:23:58.004Z,0.00
2019-05-19T01:24:58.005Z,0.00
2019-05-19T01:25:57.980Z,0.00
2019-05-19T01:26:57.983Z,0.00
2019-05-19T01:27:57.966Z,0.00
2019-05-19T01:28:57.953Z,0.00
2019-05-19T01:29:57.952Z,0.00
2019-05-19T01:30:57.932Z,0.00
2019-05-19T01:31:57.920Z,0.00
2019-05-19T01:32:57.909Z,0.00
2019-05-19T01:33:57.898Z,0.00
2019-05-19T01:34:57.890Z,0.00
2019-05-19T01:35:57.887Z,0.00
2019-05-19T01:36:57.873Z,0.00
2019-05-19T01:37:57.850Z,0.00
2019-05-19T01:38:57.846Z,0.00
2019-05-19T01:39:57.830Z,0.00
2019-05-19T01:40:57.831Z,0.00
2019-05-19T01:41:57.835Z,0.00
2019-05-19T01:42:57.797Z,0.00
2019-05-19T01:43:57.790Z,0.00
2019-05-19T01:44:57.779Z,0.00
2019-05-19T01:45:57.771Z,0.00
2019-05-19T01:46:57.763Z,0.00
2019-05-19T01:47:57.747Z,0.00
2019-05-19T01:48:57.737Z,0.00
2019-05-19T01:50:16.571Z,0.00
2019-05-19T01:50:58.758Z,0.00
2019-05-19T01:51:57.706Z,0.00
2019-05-19T01:52:57.689Z,0.00
2019-05-19T01:53:57.684Z,0.00
2019-05-19T01:54:57.674Z,0.00
2019-05-19T01:55:57.661Z,0.00
2019-05-19T01:56:57.654Z,0.00
2019-05-19T01:57:57.662Z,0.00
2019-05-19T01:58:57.628Z,0.00
2019-05-19T01:59:57.617Z,0.00
2019-05-19T02:00:57.606Z,0.00
2019-05-19T02:01:57.597Z,0.00
2019-05-19T02:02:57.590Z,0.00
2019-05-19T02:03:57.589Z,0.00
2019-05-19T02:04:57.561Z,0.00
2019-05-19T02:05:57.556Z,0.00
2019-05-19T02:06:57.538Z,0.00
2019-05-19T02:08:05.138Z,0.00
2019-05-19T02:08:57.529Z,0.00
2019-05-19T02:09:57.508Z,0.00
2019-05-19T02:10:57.502Z,0.00
2019-05-19T02:11:57.511Z,0.00
2019-05-19T02:12:57.483Z,0.00
2019-05-19T02:13:57.459Z,0.00
2019-05-19T02:14:57.462Z,0.00
2019-05-19T02:15:57.443Z,0.00
2019-05-19T02:16:57.435Z,0.00
2019-05-19T02:17:57.421Z,0.00
2019-05-19T02:18:57.406Z,0.00
2019-05-19T02:19:57.403Z,0.00
2019-05-19T02:20:57.388Z,0.00
2019-05-19T02:21:57.373Z,0.00
2019-05-19T02:22:57.378Z,0.00
2019-05-19T02:23:57.358Z,0.00
2019-05-19T02:24:57.355Z,0.00
2019-05-19T02:25:57.670Z,0.00
2019-05-19T02:26:57.337Z,0.00
2019-05-19T02:27:57.319Z,0.00
2019-05-19T02:28:57.298Z,0.00
2019-05-19T02:29:57.291Z,0.00
2019-05-19T02:30:57.311Z,0.00
2019-05-19T02:31:57.272Z,0.00
2019-05-19T02:32:57.267Z,0.00
2019-05-19T02:33:57.249Z,4.00
2019-05-19T02:34:57.249Z,4.00
2019-05-19T02:35:57.311Z,4.00
2019-05-19T02:36:57.230Z,4.00
2019-05-19T02:37:57.201Z,0.00
2019-05-19T02:38:57.206Z,4.00
2019-05-19T02:39:57.184Z,4.00
2019-05-19T02:40:57.168Z,4.00
2019-05-19T02:41:57.201Z,4.00
2019-05-19T02:42:57.146Z,4.00
2019-05-19T02:43:57.137Z,4.00
2019-05-19T02:44:57.129Z,8.00
2019-05-19T02:45:58.108Z,8.00
2019-05-19T02:46:57.108Z,12.00
2019-05-19T02:47:57.111Z,12.00
2019-05-19T02:48:57.090Z,12.00
2019-05-19T02:49:57.074Z,12.00
2019-05-19T02:50:57.066Z,12.00
2019-05-19T02:51:57.054Z,16.00
2019-05-19T02:52:57.045Z,20.00
2019-05-19T02:53:57.071Z,20.00
2019-05-19T02:54:57.016Z,24.00
2019-05-19T02:55:57.019Z,28.00
2019-05-19T02:56:57.002Z,28.00
2019-05-19T02:57:56.989Z,32.00
2019-05-19T02:58:56.979Z,36.00
2019-05-19T02:59:56.993Z,44.00
2019-05-19T03:00:56.969Z,44.00
2019-05-19T03:01:56.943Z,48.00
2019-05-19T03:02:56.930Z,56.00
2019-05-19T03:03:56.925Z,64.00
2019-05-19T03:04:56.911Z,68.00
2019-05-19T03:05:56.918Z,72.00
2019-05-19T03:06:56.890Z,80.00
2019-05-19T03:07:56.883Z,88.00
2019-05-19T03:08:56.876Z,96.00
2019-05-19T03:09:56.858Z,100.00
2019-05-19T03:10:56.848Z,108.00
2019-05-19T03:11:56.847Z,120.00
2019-05-19T03:12:56.824Z,124.00
2019-05-19T03:13:56.813Z,132.00
2019-05-19T03:14:56.805Z,132.00
2019-05-19T03:15:56.802Z,144.00
2019-05-19T03:16:56.785Z,148.00
2019-05-19T03:17:56.770Z,156.00
2019-05-19T03:18:56.762Z,168.00
2019-05-19T03:19:56.744Z,176.00
2019-05-19T03:21:10.454Z,188.00
2019-05-19T03:21:57.727Z,192.00
2019-05-19T03:22:56.713Z,204.00
2019-05-19T03:23:56.727Z,212.00
2019-05-19T03:24:56.700Z,224.00
2019-05-19T03:25:56.686Z,236.00
2019-05-19T03:26:56.686Z,248.00
2019-05-19T03:27:56.764Z,260.00
2019-05-19T03:28:56.648Z,268.00
2019-05-19T03:29:56.637Z,280.00
2019-05-19T03:30:56.637Z,296.00
2019-05-19T03:31:56.643Z,308.00
2019-05-19T03:32:56.617Z,316.00
2019-05-19T03:33:56.607Z,332.00
2019-05-19T03:34:56.590Z,348.00
2019-05-19T03:35:56.601Z,368.00
2019-05-19T03:36:56.565Z,392.00
2019-05-19T03:37:56.565Z,420.00
2019-05-19T03:38:56.568Z,444.00
2019-05-19T03:39:56.532Z,460.00
2019-05-19T03:40:56.518Z,480.00
2019-05-19T03:41:56.517Z,504.00
2019-05-19T03:42:56.509Z,528.00
2019-05-19T03:43:56.510Z,540.00
2019-05-19T03:44:56.491Z,548.00
2019-05-19T03:45:56.469Z,560.00
2019-05-19T03:46:56.468Z,560.00
2019-05-19T03:47:56.458Z,560.00
2019-05-19T03:48:56.440Z,564.00
2019-05-19T03:49:56.425Z,568.00
2019-05-19T03:50:56.412Z,568.00
2019-05-19T03:51:56.405Z,564.00
2019-05-19T03:52:56.389Z,572.00
2019-05-19T03:53:56.405Z,584.00
2019-05-19T03:54:56.375Z,596.00
2019-05-19T03:55:56.358Z,600.00
2019-05-19T03:56:56.352Z,620.00
2019-05-19T03:57:56.364Z,636.00
2019-05-19T03:58:56.327Z,644.00
2019-05-19T03:59:56.343Z,656.00
2019-05-19T04:00:56.308Z,676.00
2019-05-19T04:01:56.290Z,720.00
2019-05-19T04:02:56.280Z,760.00
2019-05-19T04:03:56.274Z,780.00
2019-05-19T04:04:56.261Z,772.00
2019-05-19T04:05:56.257Z,800.00
2019-05-19T04:06:56.235Z,812.00
2019-05-19T04:07:56.230Z,844.00
2019-05-19T04:08:56.213Z,856.00
2019-05-19T04:09:56.207Z,880.00
2019-05-19T04:10:56.206Z,936.00
2019-05-19T04:11:56.190Z,980.00
2019-05-19T04:12:56.220Z,1036.00
2019-05-19T04:13:56.164Z,1092.00
2019-05-19T04:14:56.151Z,1148.00
2019-05-19T04:15:56.144Z,1228.00
2019-05-19T04:16:56.128Z,1240.00
2019-05-19T04:17:56.120Z,1236.00
2019-05-19T04:18:56.143Z,1308.00
2019-05-19T04:19:56.097Z,1360.00
2019-05-19T04:20:56.082Z,1360.00
2019-05-19T04:21:56.071Z,1356.00
2019-05-19T04:22:56.060Z,1364.00
2019-05-19T04:23:56.055Z,1376.00
2019-05-19T04:24:56.048Z,1392.00
2019-05-19T04:25:56.035Z,1408.00
2019-05-19T04:26:56.047Z,1428.00
2019-05-19T04:27:56.009Z,1452.00
2019-05-19T04:28:56.003Z,1464.00
2019-05-19T04:29:55.996Z,1472.00
2019-05-19T04:30:55.975Z,1452.00
2019-05-19T04:31:55.962Z,1456.00
2019-05-19T04:32:55.956Z,1444.00
2019-05-19T04:33:55.986Z,1464.00
2019-05-19T04:34:55.938Z,1484.00
2019-05-19T04:35:57.577Z,1524.00
2019-05-19T04:36:55.909Z,1492.00
2019-05-19T04:37:55.945Z,1544.00
2019-05-19T04:38:55.887Z,1628.00
2019-05-19T04:39:55.871Z,1640.00
2019-05-19T04:40:55.869Z,1656.00
2019-05-19T04:41:55.857Z,1660.00
2019-05-19T04:42:55.840Z,1700.00
2019-05-19T04:43:55.836Z,1720.00
2019-05-19T04:44:55.826Z,1716.00
2019-05-19T04:45:55.814Z,1700.00
2019-05-19T04:46:55.805Z,1748.00
2019-05-19T04:47:55.829Z,1808.00
2019-05-19T04:48:55.785Z,1880.00
2019-05-19T04:49:55.767Z,1892.00
2019-05-19T04:50:55.758Z,1988.00
2019-05-19T04:52:05.865Z,2084.00
2019-05-19T04:52:56.741Z,2164.00
2019-05-19T04:53:55.725Z,2240.00
2019-05-19T04:54:55.712Z,2304.00
2019-05-19T04:55:55.697Z,2404.00
2019-05-19T04:56:55.719Z,2536.00
2019-05-19T04:57:55.677Z,2616.00
2019-05-19T04:58:55.671Z,2628.00
2019-05-19T04:59:55.658Z,2744.00
2019-05-19T05:00:55.657Z,2816.00
2019-05-19T05:01:55.634Z,2824.00
2019-05-19T05:02:55.637Z,2816.00
2019-05-19T05:03:55.614Z,2856.00
2019-05-19T05:04:55.623Z,2860.00
2019-05-19T05:05:55.592Z,2836.00
2019-05-19T05:06:55.576Z,2800.00
2019-05-19T05:07:55.596Z,2764.00
2019-05-19T05:08:55.558Z,2708.00
2019-05-19T05:09:55.551Z,2628.00
2019-05-19T05:10:55.545Z,2600.00
2019-05-19T05:11:55.534Z,2524.00
2019-05-19T05:12:55.516Z,2456.00
2019-05-19T05:13:55.504Z,2416.00
2019-05-19T05:14:55.496Z,2380.00
2019-05-19T05:15:55.477Z,2348.00
2019-05-19T05:16:55.533Z,2328.00
2019-05-19T05:17:55.455Z,2312.00
2019-05-19T05:18:55.450Z,2296.00
2019-05-19T05:19:55.433Z,2340.00
2019-05-19T05:20:55.427Z,2344.00
2019-05-19T05:21:55.411Z,2276.00
2019-05-19T05:22:55.407Z,2244.00
2019-05-19T05:23:55.392Z,2208.00
2019-05-19T05:24:55.377Z,2208.00
2019-05-19T05:25:55.368Z,2208.00
2019-05-19T05:26:55.392Z,2220.00
2019-05-19T05:27:55.348Z,2312.00
2019-05-19T05:28:55.339Z,2472.00
2019-05-19T05:29:55.330Z,2584.00
2019-05-19T05:30:55.323Z,2632.00
2019-05-19T05:31:55.302Z,2744.00
2019-05-19T05:32:55.303Z,2828.00
2019-05-19T05:33:55.323Z,2904.00
2019-05-19T05:34:55.273Z,2992.00
2019-05-19T05:35:55.258Z,3136.00
2019-05-19T05:36:55.254Z,3372.00
2019-05-19T05:37:55.237Z,3332.00
2019-05-19T05:38:55.226Z,3412.00
2019-05-19T05:39:55.228Z,3356.00
2019-05-19T05:40:55.210Z,3172.00
2019-05-19T05:41:55.211Z,3016.00
2019-05-19T05:42:55.186Z,2980.00
2019-05-19T05:43:55.174Z,2996.00
2019-05-19T05:44:55.185Z,3148.00
2019-05-19T05:45:55.152Z,3672.00
2019-05-19T05:46:55.142Z,4380.00
2019-05-19T05:47:55.132Z,5024.00
2019-05-19T05:48:55.125Z,5776.00
2019-05-19T05:49:55.111Z,6424.00
2019-05-19T05:50:55.130Z,6404.00
2019-05-19T05:51:55.086Z,5864.00
2019-05-19T05:52:55.075Z,5660.00
2019-05-19T05:53:55.066Z,5484.00
2019-05-19T05:54:55.052Z,5132.00
2019-05-19T05:55:55.053Z,4660.00
2019-05-19T05:56:55.070Z,4188.00
2019-05-19T05:57:55.023Z,4088.00
2019-05-19T05:58:55.008Z,4060.00
2019-05-19T05:59:54.996Z,3972.00
2019-05-19T06:00:54.994Z,3912.00
2019-05-19T06:01:54.980Z,3856.00
2019-05-19T06:02:54.984Z,3768.00
2019-05-19T06:03:54.960Z,3728.00
2019-05-19T06:04:54.946Z,3796.00
2019-05-19T06:05:54.929Z,3856.00
2019-05-19T06:06:54.927Z,4052.00
2019-05-19T06:07:54.919Z,3884.00
2019-05-19T06:08:54.902Z,3340.00
2019-05-19T06:09:54.890Z,3600.00
2019-05-19T06:10:54.881Z,3672.00
2019-05-19T06:11:54.876Z,3972.00
2019-05-19T06:12:54.886Z,4180.00
2019-05-19T06:13:54.847Z,4336.00
2019-05-19T06:14:54.836Z,4532.00
2019-05-19T06:15:54.819Z,4536.00
2019-05-19T06:16:54.813Z,3652.00
2019-05-19T06:17:54.829Z,4112.00
2019-05-19T06:18:56.759Z,5324.00
2019-05-19T06:19:54.780Z,5192.00
2019-05-19T06:20:54.765Z,5208.00
2019-05-19T06:21:54.759Z,4872.00
2019-05-19T06:22:56.918Z,4848.00
2019-05-19T06:23:54.745Z,4376.00
2019-05-19T06:24:54.729Z,4104.00
2019-05-19T06:25:54.716Z,4268.00
2019-05-19T06:26:54.700Z,4400.00
2019-05-19T06:27:54.704Z,4856.00
2019-05-19T06:28:54.687Z,5696.00
2019-05-19T06:29:54.676Z,6156.00
2019-05-19T06:30:54.664Z,6628.00
2019-05-19T06:31:54.654Z,7008.00
2019-05-19T06:32:54.660Z,11068.00
2019-05-19T06:33:54.631Z,17280.00
2019-05-19T06:34:54.619Z,18688.00
2019-05-19T06:35:54.612Z,19104.00
2019-05-19T06:36:55.226Z,20064.00
2019-05-19T06:37:54.579Z,18880.00
2019-05-19T06:38:54.610Z,19200.00
2019-05-19T06:39:54.560Z,20032.00
2019-05-19T06:40:54.549Z,20288.00
2019-05-19T06:41:54.551Z,20544.00
2019-05-19T06:42:54.525Z,21760.00
2019-05-19T06:43:54.520Z,23040.00
2019-05-19T06:44:54.537Z,22464.00
2019-05-19T06:45:54.502Z,22144.00
2019-05-19T06:46:54.483Z,20928.00
2019-05-19T06:47:54.478Z,20704.00
2019-05-19T06:48:54.466Z,23520.00
2019-05-19T06:49:54.470Z,23648.00
2019-05-19T06:50:54.461Z,22304.00
2019-05-19T06:51:54.428Z,21024.00
2019-05-19T06:52:54.423Z,20832.00
2019-05-19T06:53:54.408Z,21344.00
2019-05-19T06:54:54.405Z,21760.00
2019-05-19T06:55:54.394Z,25184.00
2019-05-19T06:56:54.385Z,28224.00
2019-05-19T06:57:54.370Z,27712.00
2019-05-19T06:58:54.363Z,25984.00
2019-05-19T06:59:54.342Z,24736.00
2019-05-19T07:00:54.353Z,23584.00
2019-05-19T07:01:54.320Z,21792.00
2019-05-19T07:02:54.308Z,24128.00
2019-05-19T07:03:54.305Z,28160.00
2019-05-19T07:04:54.304Z,29824.00
2019-05-19T07:05:54.305Z,30176.00
2019-05-19T07:06:54.318Z,33408.00
2019-05-19T07:07:54.261Z,33696.00
2019-05-19T07:08:54.251Z,30624.00
2019-05-19T07:09:58.609Z,30656.00
2019-05-19T07:10:54.226Z,34112.00
2019-05-19T07:11:54.228Z,30560.00
2019-05-19T07:12:54.206Z,25696.00
2019-05-19T07:13:54.190Z,29248.00
2019-05-19T07:14:54.188Z,35584.00
2019-05-19T07:15:54.169Z,36640.00
2019-05-19T07:16:54.189Z,36192.00
2019-05-19T07:17:54.168Z,36992.00
2019-05-19T07:18:54.145Z,36608.00
2019-05-19T07:19:54.126Z,38272.00
2019-05-19T07:20:54.120Z,37696.00
2019-05-19T07:21:54.120Z,35872.00
2019-05-19T07:22:54.116Z,38624.00
2019-05-19T07:23:54.087Z,38112.00
2019-05-19T07:24:54.085Z,37376.00
2019-05-19T07:25:54.067Z,37696.00
2019-05-19T07:26:54.066Z,38304.00
2019-05-19T07:27:54.052Z,37952.00
2019-05-19T07:28:54.034Z,37536.00
2019-05-19T07:29:54.025Z,38592.00
2019-05-19T07:30:54.014Z,39872.00
2019-05-19T07:31:53.999Z,41024.00
2019-05-19T07:32:54.016Z,41920.00
2019-05-19T07:33:53.975Z,37856.00
2019-05-19T07:34:53.967Z,34880.00
2019-05-19T07:35:53.964Z,37856.00
2019-05-19T07:36:53.945Z,39744.00
2019-05-19T07:37:53.941Z,39104.00
2019-05-19T07:38:53.977Z,40480.00
2019-05-19T07:39:53.913Z,43648.00
2019-05-19T07:40:53.902Z,45696.00
2019-05-19T07:41:53.895Z,44256.00
2019-05-19T07:42:53.883Z,40320.00
2019-05-19T07:43:53.874Z,39264.00
2019-05-19T07:44:53.873Z,40672.00
2019-05-19T07:45:53.868Z,42528.00
2019-05-19T07:46:53.841Z,44320.00
2019-05-19T07:47:53.828Z,47488.00
2019-05-19T07:48:53.849Z,46880.00
2019-05-19T07:49:53.806Z,47328.00
2019-05-19T07:50:53.808Z,47584.00
2019-05-19T07:51:53.792Z,45952.00
2019-05-19T07:52:53.807Z,45088.00
2019-05-19T07:53:53.768Z,48000.00
2019-05-19T07:54:53.766Z,50752.00
2019-05-19T07:55:53.748Z,49600.00
2019-05-19T07:56:53.741Z,49248.00
2019-05-19T07:57:53.735Z,52448.00
2019-05-19T07:58:53.715Z,52000.00
2019-05-19T07:59:53.701Z,52576.00
2019-05-19T08:00:53.698Z,51136.00
2019-05-19T08:01:53.788Z,48320.00
2019-05-19T08:02:53.684Z,52736.00
2019-05-19T08:03:53.658Z,49824.00
2019-05-19T08:04:53.654Z,32832.00
2019-05-19T08:05:56.902Z,42720.00
2019-05-19T08:06:53.641Z,39648.00
2019-05-19T08:07:53.645Z,46880.00
2019-05-19T08:08:53.674Z,49696.00
2019-05-19T08:10:01.239Z,48704.00
2019-05-19T08:10:53.585Z,46496.00
2019-05-19T08:11:53.573Z,46624.00
2019-05-19T08:12:53.569Z,52736.00
2019-05-19T08:13:53.569Z,53888.00
2019-05-19T08:14:53.550Z,55648.00
2019-05-19T08:15:53.537Z,47136.00
2019-05-19T08:16:53.531Z,33152.00
2019-05-19T08:17:53.559Z,38112.00
2019-05-19T08:18:53.505Z,40800.00
2019-05-19T08:19:53.498Z,35328.00
2019-05-19T08:20:53.508Z,35328.00
2019-05-19T08:21:53.473Z,52032.00
2019-05-19T08:22:53.463Z,54432.00
2019-05-19T08:24:00.487Z,58912.00
2019-05-19T08:24:54.444Z,63520.00
2019-05-19T08:25:53.431Z,54208.00
2019-05-19T08:26:53.430Z,61696.00
2019-05-19T08:27:53.415Z,59744.00
2019-05-19T08:28:53.401Z,61504.00
2019-05-19T08:29:53.408Z,57280.00
2019-05-19T08:30:53.420Z,61856.00
2019-05-19T08:31:53.391Z,65056.00
2019-05-19T08:32:53.357Z,67392.00
2019-05-19T08:33:53.373Z,63584.00
2019-05-19T08:34:53.337Z,64832.00
2019-05-19T08:35:53.335Z,59456.00
2019-05-19T08:36:53.321Z,48896.00
2019-05-19T08:37:53.306Z,45440.00
2019-05-19T08:38:53.298Z,48512.00
2019-05-19T08:39:53.286Z,57728.00
2019-05-19T08:40:53.334Z,64416.00
2019-05-19T08:41:53.261Z,63872.00
2019-05-19T08:42:53.264Z,59840.00
2019-05-19T08:43:53.542Z,60416.00
2019-05-19T08:44:53.241Z,68000.00
2019-05-19T08:45:53.217Z,70048.00
2019-05-19T08:46:53.224Z,65824.00
2019-05-19T08:47:53.195Z,54880.00
2019-05-19T08:48:53.187Z,52832.00
2019-05-19T08:49:53.176Z,61408.00
2019-05-19T08:50:53.166Z,67808.00
2019-05-19T08:51:53.169Z,68448.00
2019-05-19T08:52:53.159Z,72160.00
2019-05-19T08:53:53.141Z,70592.00
2019-05-19T08:54:53.127Z,70944.00
2019-05-19T08:55:53.167Z,68832.00
2019-05-19T08:56:53.106Z,68160.00
2019-05-19T08:57:53.116Z,66496.00
2019-05-19T08:58:53.095Z,54688.00
2019-05-19T08:59:53.075Z,52416.00
2019-05-19T09:00:53.068Z,51424.00
2019-05-19T09:01:53.063Z,51616.00
2019-05-19T09:02:53.043Z,57408.00
2019-05-19T09:03:53.042Z,60064.00
2019-05-19T09:04:53.037Z,60384.00
2019-05-19T09:05:53.020Z,57920.00
2019-05-19T09:06:53.007Z,55680.00
2019-05-19T09:07:52.997Z,61184.00
2019-05-19T09:08:53.026Z,65568.00
2019-05-19T09:09:52.976Z,63072.00
2019-05-19T09:10:52.962Z,72768.00
2019-05-19T09:11:52.955Z,78272.00
2019-05-19T09:12:52.954Z,74752.00
2019-05-19T09:13:52.932Z,73664.00
2019-05-19T09:14:52.934Z,74464.00
2019-05-19T09:15:52.918Z,80288.00
2019-05-19T09:16:52.899Z,75424.00
2019-05-19T09:17:54.281Z,76096.00
2019-05-19T09:18:52.886Z,66656.00
2019-05-19T09:19:52.888Z,67744.00
2019-05-19T09:20:52.857Z,73888.00
2019-05-19T09:21:52.858Z,79296.00
2019-05-19T09:22:52.846Z,74752.00
2019-05-19T09:23:52.851Z,72896.00
2019-05-19T09:24:52.823Z,72000.00
2019-05-19T09:25:52.811Z,73440.00
2019-05-19T09:26:52.808Z,73792.00
2019-05-19T09:27:52.786Z,72544.00
2019-05-19T09:28:52.776Z,72384.00
2019-05-19T09:29:52.770Z,71744.00
2019-05-19T09:30:52.761Z,77152.00
2019-05-19T09:31:52.760Z,79296.00
2019-05-19T09:32:52.758Z,74784.00
2019-05-19T09:33:52.730Z,69664.00
2019-05-19T09:34:52.727Z,66400.00
2019-05-19T09:35:52.705Z,65536.00
2019-05-19T09:36:52.714Z,62976.00
2019-05-19T09:37:52.700Z,67104.00
2019-05-19T09:38:52.676Z,72032.00
2019-05-19T09:39:52.671Z,79008.00
2019-05-19T09:40:52.660Z,90112.00
2019-05-19T09:41:52.645Z,84960.00
2019-05-19T09:42:52.659Z,73952.00
2019-05-19T09:43:52.623Z,71136.00
2019-05-19T09:44:52.621Z,72320.00
2019-05-19T09:45:52.607Z,79680.00
2019-05-19T09:46:52.599Z,79680.00
2019-05-19T09:47:52.587Z,77024.00
2019-05-19T09:48:52.586Z,78816.00
2019-05-19T09:49:52.570Z,82848.00
2019-05-19T09:50:52.553Z,87520.00
2019-05-19T09:51:52.622Z,79424.00
2019-05-19T09:52:52.531Z,76672.00
2019-05-19T09:53:52.536Z,72032.00
2019-05-19T09:54:52.525Z,78368.00
2019-05-19T09:55:52.503Z,88416.00
2019-05-19T09:56:52.490Z,86272.00
2019-05-19T09:57:52.490Z,85376.00
2019-05-19T09:58:52.500Z,82688.00
2019-05-19T09:59:52.463Z,82304.00
2019-05-19T10:00:52.457Z,89088.00
2019-05-19T10:01:52.449Z,86368.00
2019-05-19T10:02:52.432Z,85888.00
2019-05-19T10:03:52.429Z,82816.00
2019-05-19T10:04:52.427Z,78336.00
2019-05-19T10:05:52.402Z,79808.00
2019-05-19T10:06:52.440Z,84032.00
2019-05-19T10:07:52.386Z,85440.00
2019-05-19T10:08:52.381Z,85408.00
2019-05-19T10:09:52.390Z,89632.00
2019-05-19T10:10:52.356Z,90304.00
2019-05-19T10:11:52.347Z,90944.00
2019-05-19T10:12:52.333Z,88960.00
2019-05-19T10:13:52.454Z,82656.00
2019-05-19T10:14:52.310Z,76064.00
2019-05-19T10:15:52.322Z,76960.00
2019-05-19T10:16:52.325Z,82144.00
2019-05-19T10:17:52.280Z,84704.00
2019-05-19T10:18:52.278Z,87072.00
2019-05-19T10:19:52.262Z,89824.00
2019-05-19T10:20:52.357Z,91008.00
2019-05-19T10:21:52.248Z,90848.00
2019-05-19T10:22:52.239Z,89664.00
2019-05-19T10:23:52.223Z,89920.00
2019-05-19T10:25:04.437Z,84096.00
2019-05-19T10:25:53.219Z,75552.00
2019-05-19T10:26:52.211Z,79712.00
2019-05-19T10:27:52.187Z,82304.00
2019-05-19T10:28:52.181Z,86368.00
2019-05-19T10:29:52.175Z,94176.00
2019-05-19T10:30:52.184Z,90432.00
2019-05-19T10:31:54.362Z,93376.00
2019-05-19T10:32:52.144Z,92672.00
2019-05-19T10:33:52.125Z,96128.00
2019-05-19T10:34:52.114Z,96352.00
2019-05-19T10:35:52.103Z,91360.00
2019-05-19T10:36:52.120Z,91680.00
2019-05-19T10:37:52.089Z,91168.00
2019-05-19T10:38:52.078Z,92032.00
2019-05-19T10:39:52.070Z,96832.00
2019-05-19T10:40:52.054Z,98400.00
2019-05-19T10:41:52.053Z,90720.00
2019-05-19T10:42:52.047Z,9644.00
2019-05-19T10:43:52.025Z,97472.00
2019-05-19T10:44:52.054Z,35200.00
2019-05-19T10:45:52.016Z,42336.00
2019-05-19T10:46:52.002Z,17376.00
2019-05-19T10:47:52.001Z,14896.00
2019-05-19T10:48:52.014Z,9940.00
2019-05-19T10:49:51.976Z,13724.00
2019-05-19T10:50:51.957Z,8900.00
2019-05-19T10:51:51.946Z,88800.00
2019-05-19T10:52:51.942Z,61408.00
2019-05-19T10:53:51.938Z,15248.00
2019-05-19T10:54:51.920Z,90208.00
2019-05-19T10:55:51.905Z,81696.00
2019-05-19T10:56:51.899Z,101376.00
2019-05-19T10:57:51.886Z,95488.00
2019-05-19T10:58:51.916Z,95648.00
2019-05-19T10:59:51.875Z,11420.00
2019-05-19T11:00:51.859Z,54368.00
2019-05-19T11:01:51.844Z,85536.00
2019-05-19T11:02:51.837Z,88576.00
2019-05-19T11:03:51.824Z,87136.00
2019-05-19T11:04:51.833Z,81216.00
2019-05-19T11:05:51.808Z,73216.00
2019-05-19T11:06:52.015Z,71168.00
2019-05-19T11:07:51.785Z,56352.00
2019-05-19T11:08:51.777Z,9712.00
2019-05-19T11:09:51.784Z,7312.00
2019-05-19T11:10:51.776Z,7468.00
2019-05-19T11:11:51.750Z,11800.00
2019-05-19T11:12:51.742Z,72544.00
2019-05-19T11:13:51.728Z,99008.00
2019-05-19T11:14:51.722Z,95936.00
2019-05-19T11:15:51.706Z,93760.00
2019-05-19T11:16:51.703Z,92320.00
2019-05-19T11:17:51.689Z,90368.00
2019-05-19T11:18:51.678Z,93056.00
2019-05-19T11:19:51.706Z,79040.00
2019-05-19T11:20:51.661Z,7696.00
2019-05-19T11:21:51.648Z,7264.00
2019-05-19T11:22:51.637Z,9828.00
2019-05-19T11:23:51.628Z,54496.00
2019-05-19T11:24:51.625Z,38784.00
2019-05-19T11:25:51.992Z,27328.00
2019-05-19T11:26:51.595Z,20256.00
2019-05-19T11:27:51.592Z,18432.00
2019-05-19T11:28:51.574Z,18400.00
2019-05-19T11:29:51.569Z,18176.00
2019-05-19T11:30:51.575Z,18976.00
2019-05-19T11:31:51.556Z,14752.00
2019-05-19T11:32:51.537Z,9032.00
2019-05-19T11:33:51.529Z,6728.00
2019-05-19T11:34:51.523Z,5964.00
2019-05-19T11:35:51.508Z,6260.00
2019-05-19T11:36:51.505Z,8712.00
2019-05-19T11:37:51.493Z,16384.00
2019-05-19T11:38:51.473Z,10060.00
2019-05-19T11:39:51.468Z,15520.00
2019-05-19T11:40:51.453Z,15968.00
2019-05-19T11:41:51.460Z,9516.00
2019-05-19T11:42:51.447Z,10960.00
2019-05-19T11:43:51.427Z,15316.00
2019-05-19T11:44:51.417Z,13328.00
2019-05-19T11:45:51.399Z,14320.00
2019-05-19T11:46:51.406Z,7888.00
2019-05-19T11:47:51.436Z,8204.00
2019-05-19T11:48:51.382Z,7812.00
2019-05-19T11:49:51.464Z,13008.00
2019-05-19T11:50:51.353Z,13048.00
2019-05-19T11:51:51.376Z,13648.00
2019-05-19T11:52:51.333Z,11664.00
2019-05-19T11:53:51.327Z,4284.00
2019-05-19T11:54:51.307Z,4068.00
2019-05-19T11:56:05.471Z,4072.00
2019-05-19T11:56:52.326Z,4424.00
2019-05-19T11:57:51.284Z,5320.00
2019-05-19T11:58:51.273Z,6196.00
2019-05-19T11:59:51.271Z,11628.00
2019-05-19T12:00:51.256Z,6032.00
2019-05-19T12:01:51.241Z,8040.00
2019-05-19T12:02:51.277Z,3916.00
2019-05-19T12:03:51.220Z,4500.00
2019-05-19T12:04:51.212Z,4668.00
2019-05-19T12:05:51.194Z,5156.00
2019-05-19T12:06:51.197Z,10620.00
2019-05-19T12:07:51.191Z,10688.00
2019-05-19T12:08:51.169Z,10544.00
2019-05-19T12:09:51.158Z,10152.00
2019-05-19T12:10:51.151Z,10240.00
2019-05-19T12:11:51.218Z,10484.00
2019-05-19T12:12:51.139Z,10436.00
2019-05-19T12:13:51.295Z,10524.00
2019-05-19T12:14:51.204Z,10792.00